sensor_id;sensor_type;location;lat;lon;timestamp;P1;durP1;ratioP1;P2;durP2;ratioP2
10045;SDS011;5063;50.878;4.742;2023-02-19T00:01:36;6.00;;;4.87;;
10045;SDS011;5063;50.878;4.742;2023-02-19T00:04:07;4.60;;;4.10;;
10045;SDS011;5063;50.878;4.742;2023-02-19T00:06:38;4.33;;;3.90;;
10045;SDS011;5063;50.878;4.742;2023-02-19T00:09:04;5.97;;;4.27;;
10045;SDS011;5063;50.878;4.742;2023-02-19T00:11:30;6.60;;;4.30;;
10045;SDS011;5063;50.878;4.742;2023-02-19T00:13:58;4.30;;;3.83;;
10045;SDS011;5063;50.878;4.742;2023-02-19T00:18:52;4.87;;;3.73;;
10045;SDS011;5063;50.878;4.742;2023-02-19T00:21:20;4.70;;;4.00;;
10045;SDS011;5063;50.878;4.742;2023-02-19T00:23:50;4.37;;;3.97;;
10045;SDS011;5063;50.878;4.742;2023-02-19T00:26:21;6.57;;;4.57;;
10045;SDS011;5063;50.878;4.742;2023-02-19T00:28:48;4.40;;;4.00;;
10045;SDS011;5063;50.878;4.742;2023-02-19T00:33:45;4.77;;;4.30;;
10045;SDS011;5063;50.878;4.742;2023-02-19T00:36:12;7.03;;;4.97;;
10045;SDS011;5063;50.878;4.742;2023-02-19T00:38:39;8.10;;;5.30;;
10045;SDS011;5063;50.878;4.742;2023-02-19T00:41:06;7.70;;;5.43;;
10045;SDS011;5063;50.878;4.742;2023-02-19T00:46:21;8.43;;;6.17;;
10045;SDS011;5063;50.878;4.742;2023-02-19T00:48:47;10.10;;;6.10;;
10045;SDS011;5063;50.878;4.742;2023-02-19T00:51:14;11.83;;;6.70;;
10045;SDS011;5063;50.878;4.742;2023-02-19T00:53:40;12.00;;;6.60;;
10045;SDS011;5063;50.878;4.742;2023-02-19T00:56:06;9.87;;;6.43;;
10045;SDS011;5063;50.878;4.742;2023-02-19T00:58:32;11.07;;;6.93;;
10045;SDS011;5063;50.878;4.742;2023-02-19T01:00:59;10.50;;;6.53;;
10045;SDS011;5063;50.878;4.742;2023-02-19T01:03:25;8.60;;;6.27;;
10045;SDS011;5063;50.878;4.742;2023-02-19T01:05:51;10.60;;;7.00;;
10045;SDS011;5063;50.878;4.742;2023-02-19T01:08:17;10.83;;;6.50;;
10045;SDS011;5063;50.878;4.742;2023-02-19T01:10:43;7.60;;;5.73;;
10045;SDS011;5063;50.878;4.742;2023-02-19T01:13:09;9.97;;;6.17;;
10045;SDS011;5063;50.878;4.742;2023-02-19T01:15:35;9.03;;;5.73;;
10045;SDS011;5063;50.878;4.742;2023-02-19T01:18:00;7.63;;;6.17;;
10045;SDS011;5063;50.878;4.742;2023-02-19T01:20:26;11.63;;;6.60;;
10045;SDS011;5063;50.878;4.742;2023-02-19T01:22:52;10.70;;;6.63;;
10045;SDS011;5063;50.878;4.742;2023-02-19T01:25:18;13.03;;;5.93;;
10045;SDS011;5063;50.878;4.742;2023-02-19T01:27:44;10.73;;;6.00;;
10045;SDS011;5063;50.878;4.742;2023-02-19T01:30:10;8.67;;;5.27;;
10045;SDS011;5063;50.878;4.742;2023-02-19T01:32:36;8.10;;;5.57;;
10045;SDS011;5063;50.878;4.742;2023-02-19T01:35:02;8.20;;;5.27;;
10045;SDS011;5063;50.878;4.742;2023-02-19T01:37:28;10.00;;;5.63;;
10045;SDS011;5063;50.878;4.742;2023-02-19T01:39:54;10.87;;;5.67;;
10045;SDS011;5063;50.878;4.742;2023-02-19T01:42:20;7.23;;;5.87;;
10045;SDS011;5063;50.878;4.742;2023-02-19T01:47:15;10.53;;;5.70;;
10045;SDS011;5063;50.878;4.742;2023-02-19T01:49:43;9.67;;;5.50;;
10045;SDS011;5063;50.878;4.742;2023-02-19T01:52:20;9.33;;;5.50;;
10045;SDS011;5063;50.878;4.742;2023-02-19T01:54:50;7.43;;;5.40;;
10045;SDS011;5063;50.878;4.742;2023-02-19T01:57:20;8.67;;;5.57;;
10045;SDS011;5063;50.878;4.742;2023-02-19T01:59:49;11.30;;;5.10;;
10045;SDS011;5063;50.878;4.742;2023-02-19T02:02:20;13.10;;;5.73;;
10045;SDS011;5063;50.878;4.742;2023-02-19T02:04:46;8.37;;;5.40;;
10045;SDS011;5063;50.878;4.742;2023-02-19T02:07:12;8.63;;;5.03;;
10045;SDS011;5063;50.878;4.742;2023-02-19T02:09:57;16.50;;;7.00;;
10045;SDS011;5063;50.878;4.742;2023-02-19T02:12:42;9.70;;;5.10;;
10045;SDS011;5063;50.878;4.742;2023-02-19T02:15:08;7.53;;;4.97;;
10045;SDS011;5063;50.878;4.742;2023-02-19T02:31:30;6.10;;;3.60;;
10045;SDS011;5063;50.878;4.742;2023-02-19T02:36:39;7.47;;;3.47;;
10045;SDS011;5063;50.878;4.742;2023-02-19T02:39:09;6.67;;;3.80;;
10045;SDS011;5063;50.878;4.742;2023-02-19T02:41:44;7.77;;;3.80;;
10045;SDS011;5063;50.878;4.742;2023-02-19T02:44:34;11.43;;;3.93;;
10045;SDS011;5063;50.878;4.742;2023-02-19T02:47:00;7.57;;;3.33;;
10045;SDS011;5063;50.878;4.742;2023-02-19T02:49:29;10.60;;;3.93;;
10045;SDS011;5063;50.878;4.742;2023-02-19T02:51:55;10.57;;;3.47;;
10045;SDS011;5063;50.878;4.742;2023-02-19T02:54:44;11.97;;;3.70;;
10045;SDS011;5063;50.878;4.742;2023-02-19T02:57:28;7.93;;;3.77;;
10045;SDS011;5063;50.878;4.742;2023-02-19T02:59:54;9.43;;;3.00;;
10045;SDS011;5063;50.878;4.742;2023-02-19T03:02:25;11.07;;;4.20;;
10045;SDS011;5063;50.878;4.742;2023-02-19T03:05:14;7.07;;;2.90;;
10045;SDS011;5063;50.878;4.742;2023-02-19T03:08:10;9.80;;;3.27;;
10045;SDS011;5063;50.878;4.742;2023-02-19T03:11:03;8.40;;;2.90;;
10045;SDS011;5063;50.878;4.742;2023-02-19T03:13:51;8.13;;;2.93;;
10045;SDS011;5063;50.878;4.742;2023-02-19T03:16:39;11.37;;;3.40;;
10045;SDS011;5063;50.878;4.742;2023-02-19T03:19:27;7.27;;;3.17;;
10045;SDS011;5063;50.878;4.742;2023-02-19T03:22:00;5.27;;;2.90;;
10045;SDS011;5063;50.878;4.742;2023-02-19T03:24:34;10.73;;;3.27;;
10045;SDS011;5063;50.878;4.742;2023-02-19T03:27:23;8.57;;;3.27;;
10045;SDS011;5063;50.878;4.742;2023-02-19T03:29:53;5.80;;;2.90;;
10045;SDS011;5063;50.878;4.742;2023-02-19T03:32:24;10.07;;;3.10;;
10045;SDS011;5063;50.878;4.742;2023-02-19T03:34:58;7.67;;;2.30;;
10045;SDS011;5063;50.878;4.742;2023-02-19T03:37:51;10.37;;;2.73;;
10045;SDS011;5063;50.878;4.742;2023-02-19T03:40:29;7.23;;;2.60;;
10045;SDS011;5063;50.878;4.742;2023-02-19T03:45:47;5.73;;;2.53;;
10045;SDS011;5063;50.878;4.742;2023-02-19T03:48:20;6.93;;;2.53;;
10045;SDS011;5063;50.878;4.742;2023-02-19T03:53:51;9.47;;;3.13;;
10045;SDS011;5063;50.878;4.742;2023-02-19T03:58:54;8.87;;;2.90;;
10045;SDS011;5063;50.878;4.742;2023-02-19T04:01:31;12.30;;;2.90;;
10045;SDS011;5063;50.878;4.742;2023-02-19T04:04:15;7.70;;;2.50;;
10045;SDS011;5063;50.878;4.742;2023-02-19T04:06:48;11.23;;;3.23;;
10045;SDS011;5063;50.878;4.742;2023-02-19T04:09:18;8.07;;;2.93;;
10045;SDS011;5063;50.878;4.742;2023-02-19T04:11:46;10.87;;;2.57;;
10045;SDS011;5063;50.878;4.742;2023-02-19T04:16:48;7.83;;;2.17;;
10045;SDS011;5063;50.878;4.742;2023-02-19T04:19:18;6.10;;;2.73;;
10045;SDS011;5063;50.878;4.742;2023-02-19T04:21:45;6.33;;;2.27;;
10045;SDS011;5063;50.878;4.742;2023-02-19T04:24:14;9.37;;;2.53;;
10045;SDS011;5063;50.878;4.742;2023-02-19T04:26:45;11.50;;;3.53;;
10045;SDS011;5063;50.878;4.742;2023-02-19T04:29:11;9.17;;;2.90;;
10045;SDS011;5063;50.878;4.742;2023-02-19T04:31:37;9.20;;;2.20;;
10045;SDS011;5063;50.878;4.742;2023-02-19T04:34:03;11.17;;;2.53;;
10045;SDS011;5063;50.878;4.742;2023-02-19T04:36:32;9.10;;;2.53;;
10045;SDS011;5063;50.878;4.742;2023-02-19T04:38:58;10.40;;;3.30;;
10045;SDS011;5063;50.878;4.742;2023-02-19T04:41:24;9.33;;;3.13;;
10045;SDS011;5063;50.878;4.742;2023-02-19T04:43:49;8.80;;;2.63;;
10045;SDS011;5063;50.878;4.742;2023-02-19T04:46:15;11.10;;;2.73;;
10045;SDS011;5063;50.878;4.742;2023-02-19T04:48:41;8.77;;;2.70;;
10045;SDS011;5063;50.878;4.742;2023-02-19T04:51:07;10.30;;;2.63;;
10045;SDS011;5063;50.878;4.742;2023-02-19T04:53:34;10.17;;;2.93;;
10045;SDS011;5063;50.878;4.742;2023-02-19T04:56:04;10.50;;;2.90;;
10045;SDS011;5063;50.878;4.742;2023-02-19T04:58:31;14.43;;;3.47;;
10045;SDS011;5063;50.878;4.742;2023-02-19T05:00:57;10.13;;;2.53;;
10045;SDS011;5063;50.878;4.742;2023-02-19T05:03:23;9.83;;;3.30;;
10045;SDS011;5063;50.878;4.742;2023-02-19T05:05:48;7.47;;;2.40;;
10045;SDS011;5063;50.878;4.742;2023-02-19T05:08:14;10.90;;;2.90;;
10045;SDS011;5063;50.878;4.742;2023-02-19T05:10:40;11.03;;;3.37;;
10045;SDS011;5063;50.878;4.742;2023-02-19T05:13:06;10.07;;;3.10;;
10045;SDS011;5063;50.878;4.742;2023-02-19T05:15:31;12.33;;;2.67;;
10045;SDS011;5063;50.878;4.742;2023-02-19T05:17:57;9.60;;;2.70;;
10045;SDS011;5063;50.878;4.742;2023-02-19T05:20:23;9.60;;;3.20;;
10045;SDS011;5063;50.878;4.742;2023-02-19T05:22:49;8.90;;;2.70;;
10045;SDS011;5063;50.878;4.742;2023-02-19T05:25:14;9.00;;;3.10;;
10045;SDS011;5063;50.878;4.742;2023-02-19T05:27:40;9.53;;;3.10;;
10045;SDS011;5063;50.878;4.742;2023-02-19T05:30:06;9.70;;;2.63;;
10045;SDS011;5063;50.878;4.742;2023-02-19T05:32:33;9.17;;;2.80;;
10045;SDS011;5063;50.878;4.742;2023-02-19T05:34:59;9.63;;;2.97;;
10045;SDS011;5063;50.878;4.742;2023-02-19T05:37:25;6.20;;;3.00;;
10045;SDS011;5063;50.878;4.742;2023-02-19T05:39:51;13.20;;;2.97;;
10045;SDS011;5063;50.878;4.742;2023-02-19T05:42:17;11.00;;;3.83;;
10045;SDS011;5063;50.878;4.742;2023-02-19T05:44:42;15.00;;;3.03;;
10045;SDS011;5063;50.878;4.742;2023-02-19T05:47:08;9.57;;;2.80;;
10045;SDS011;5063;50.878;4.742;2023-02-19T05:49:34;11.93;;;2.80;;
10045;SDS011;5063;50.878;4.742;2023-02-19T05:52:00;10.17;;;3.27;;
10045;SDS011;5063;50.878;4.742;2023-02-19T05:54:29;13.87;;;3.20;;
10045;SDS011;5063;50.878;4.742;2023-02-19T05:56:55;10.40;;;2.90;;
10045;SDS011;5063;50.878;4.742;2023-02-19T05:59:23;11.37;;;3.70;;
10045;SDS011;5063;50.878;4.742;2023-02-19T06:01:50;9.17;;;2.73;;
10045;SDS011;5063;50.878;4.742;2023-02-19T06:04:17;13.07;;;2.63;;
10045;SDS011;5063;50.878;4.742;2023-02-19T06:06:44;15.60;;;3.97;;
10045;SDS011;5063;50.878;4.742;2023-02-19T06:09:11;11.30;;;2.93;;
10045;SDS011;5063;50.878;4.742;2023-02-19T06:11:37;12.43;;;3.17;;
10045;SDS011;5063;50.878;4.742;2023-02-19T06:14:03;13.57;;;3.00;;
10045;SDS011;5063;50.878;4.742;2023-02-19T06:16:30;13.43;;;3.50;;
10045;SDS011;5063;50.878;4.742;2023-02-19T06:18:57;12.93;;;2.90;;
10045;SDS011;5063;50.878;4.742;2023-02-19T06:21:25;11.10;;;3.20;;
10045;SDS011;5063;50.878;4.742;2023-02-19T06:23:51;11.57;;;3.20;;
10045;SDS011;5063;50.878;4.742;2023-02-19T06:26:21;11.60;;;2.97;;
10045;SDS011;5063;50.878;4.742;2023-02-19T06:28:49;9.27;;;3.00;;
10045;SDS011;5063;50.878;4.742;2023-02-19T06:31:16;13.07;;;2.97;;
10045;SDS011;5063;50.878;4.742;2023-02-19T06:33:43;6.67;;;2.70;;
10045;SDS011;5063;50.878;4.742;2023-02-19T06:36:11;11.43;;;3.60;;
10045;SDS011;5063;50.878;4.742;2023-02-19T06:38:39;10.03;;;2.53;;
10045;SDS011;5063;50.878;4.742;2023-02-19T06:41:05;9.40;;;3.20;;
10045;SDS011;5063;50.878;4.742;2023-02-19T06:43:32;10.97;;;3.03;;
10045;SDS011;5063;50.878;4.742;2023-02-19T06:45:59;12.80;;;3.17;;
10045;SDS011;5063;50.878;4.742;2023-02-19T06:48:26;14.33;;;3.47;;
10045;SDS011;5063;50.878;4.742;2023-02-19T06:50:53;11.67;;;3.10;;
10045;SDS011;5063;50.878;4.742;2023-02-19T06:53:19;11.67;;;3.33;;
10045;SDS011;5063;50.878;4.742;2023-02-19T06:55:55;9.27;;;2.80;;
10045;SDS011;5063;50.878;4.742;2023-02-19T06:58:25;10.73;;;2.97;;
10045;SDS011;5063;50.878;4.742;2023-02-19T07:00:51;10.77;;;2.90;;
10045;SDS011;5063;50.878;4.742;2023-02-19T07:03:18;8.57;;;2.90;;
10045;SDS011;5063;50.878;4.742;2023-02-19T07:05:43;13.00;;;2.97;;
10045;SDS011;5063;50.878;4.742;2023-02-19T07:08:09;10.87;;;2.87;;
10045;SDS011;5063;50.878;4.742;2023-02-19T07:10:35;12.13;;;2.47;;
10045;SDS011;5063;50.878;4.742;2023-02-19T07:13:01;10.87;;;3.10;;
10045;SDS011;5063;50.878;4.742;2023-02-19T07:15:27;9.67;;;2.93;;
10045;SDS011;5063;50.878;4.742;2023-02-19T07:17:52;3.67;;;2.13;;
10045;SDS011;5063;50.878;4.742;2023-02-19T07:20:18;13.23;;;2.83;;
10045;SDS011;5063;50.878;4.742;2023-02-19T07:22:44;13.97;;;2.93;;
10045;SDS011;5063;50.878;4.742;2023-02-19T07:25:09;7.23;;;2.80;;
10045;SDS011;5063;50.878;4.742;2023-02-19T07:27:35;12.93;;;2.87;;
10045;SDS011;5063;50.878;4.742;2023-02-19T07:30:01;9.43;;;3.20;;
10045;SDS011;5063;50.878;4.742;2023-02-19T07:32:28;13.60;;;2.83;;
10045;SDS011;5063;50.878;4.742;2023-02-19T07:34:53;11.33;;;3.43;;
10045;SDS011;5063;50.878;4.742;2023-02-19T07:37:19;13.83;;;3.27;;
10045;SDS011;5063;50.878;4.742;2023-02-19T07:39:45;11.27;;;3.50;;
10045;SDS011;5063;50.878;4.742;2023-02-19T07:42:11;10.60;;;2.73;;
10045;SDS011;5063;50.878;4.742;2023-02-19T07:44:36;10.07;;;2.87;;
10045;SDS011;5063;50.878;4.742;2023-02-19T07:47:02;8.33;;;2.50;;
10045;SDS011;5063;50.878;4.742;2023-02-19T07:49:28;10.13;;;2.60;;
10045;SDS011;5063;50.878;4.742;2023-02-19T07:51:54;11.73;;;2.33;;
10045;SDS011;5063;50.878;4.742;2023-02-19T07:54:19;8.53;;;3.20;;
10045;SDS011;5063;50.878;4.742;2023-02-19T07:56:45;6.73;;;3.13;;
10045;SDS011;5063;50.878;4.742;2023-02-19T07:59:11;10.50;;;2.93;;
10045;SDS011;5063;50.878;4.742;2023-02-19T08:01:36;10.90;;;2.97;;
10045;SDS011;5063;50.878;4.742;2023-02-19T08:04:21;9.50;;;2.97;;
10045;SDS011;5063;50.878;4.742;2023-02-19T08:06:46;10.30;;;3.03;;
10045;SDS011;5063;50.878;4.742;2023-02-19T08:09:12;14.10;;;2.90;;
10045;SDS011;5063;50.878;4.742;2023-02-19T08:11:38;10.37;;;2.80;;
10045;SDS011;5063;50.878;4.742;2023-02-19T08:14:26;12.63;;;2.40;;
10045;SDS011;5063;50.878;4.742;2023-02-19T08:16:52;11.33;;;3.37;;
10045;SDS011;5063;50.878;4.742;2023-02-19T08:19:18;11.73;;;3.63;;
10045;SDS011;5063;50.878;4.742;2023-02-19T08:21:44;6.70;;;2.20;;
10045;SDS011;5063;50.878;4.742;2023-02-19T08:24:11;8.60;;;2.77;;
10045;SDS011;5063;50.878;4.742;2023-02-19T08:26:37;12.10;;;3.50;;
10045;SDS011;5063;50.878;4.742;2023-02-19T08:29:03;8.67;;;3.00;;
10045;SDS011;5063;50.878;4.742;2023-02-19T08:31:30;20.53;;;3.00;;
10045;SDS011;5063;50.878;4.742;2023-02-19T08:33:57;8.50;;;2.80;;
10045;SDS011;5063;50.878;4.742;2023-02-19T08:36:22;10.20;;;3.47;;
10045;SDS011;5063;50.878;4.742;2023-02-19T08:38:48;10.73;;;2.60;;
10045;SDS011;5063;50.878;4.742;2023-02-19T08:41:14;8.13;;;2.63;;
10045;SDS011;5063;50.878;4.742;2023-02-19T08:43:40;6.37;;;2.77;;
10045;SDS011;5063;50.878;4.742;2023-02-19T08:46:07;9.47;;;2.60;;
10045;SDS011;5063;50.878;4.742;2023-02-19T08:48:34;9.60;;;2.43;;
10045;SDS011;5063;50.878;4.742;2023-02-19T08:51:01;10.07;;;2.90;;
10045;SDS011;5063;50.878;4.742;2023-02-19T08:53:30;6.50;;;2.73;;
10045;SDS011;5063;50.878;4.742;2023-02-19T08:55:56;9.57;;;3.17;;
10045;SDS011;5063;50.878;4.742;2023-02-19T08:58:22;10.20;;;3.13;;
10045;SDS011;5063;50.878;4.742;2023-02-19T09:00:50;10.37;;;3.47;;
10045;SDS011;5063;50.878;4.742;2023-02-19T09:03:16;12.50;;;2.93;;
10045;SDS011;5063;50.878;4.742;2023-02-19T09:05:42;9.13;;;2.77;;
10045;SDS011;5063;50.878;4.742;2023-02-19T09:08:11;7.20;;;2.30;;
10045;SDS011;5063;50.878;4.742;2023-02-19T09:10:37;7.50;;;2.87;;
10045;SDS011;5063;50.878;4.742;2023-02-19T09:13:03;5.20;;;2.47;;
10045;SDS011;5063;50.878;4.742;2023-02-19T09:15:29;12.27;;;3.13;;
10045;SDS011;5063;50.878;4.742;2023-02-19T09:17:55;11.40;;;3.03;;
10045;SDS011;5063;50.878;4.742;2023-02-19T09:20:21;10.73;;;2.87;;
10045;SDS011;5063;50.878;4.742;2023-02-19T09:22:46;8.33;;;2.80;;
10045;SDS011;5063;50.878;4.742;2023-02-19T09:25:12;8.20;;;2.77;;
10045;SDS011;5063;50.878;4.742;2023-02-19T09:27:38;7.53;;;2.83;;
10045;SDS011;5063;50.878;4.742;2023-02-19T09:30:04;6.10;;;2.87;;
10045;SDS011;5063;50.878;4.742;2023-02-19T09:32:30;6.83;;;2.50;;
10045;SDS011;5063;50.878;4.742;2023-02-19T09:34:57;10.53;;;3.63;;
10045;SDS011;5063;50.878;4.742;2023-02-19T09:37:26;6.47;;;2.70;;
10045;SDS011;5063;50.878;4.742;2023-02-19T09:39:52;10.47;;;3.57;;
10045;SDS011;5063;50.878;4.742;2023-02-19T09:42:28;14.57;;;3.47;;
10045;SDS011;5063;50.878;4.742;2023-02-19T09:44:56;8.10;;;2.70;;
10045;SDS011;5063;50.878;4.742;2023-02-19T09:47:25;9.33;;;3.03;;
10045;SDS011;5063;50.878;4.742;2023-02-19T09:49:54;14.33;;;3.03;;
10045;SDS011;5063;50.878;4.742;2023-02-19T09:52:41;9.73;;;2.97;;
10045;SDS011;5063;50.878;4.742;2023-02-19T09:55:30;8.67;;;2.70;;
10045;SDS011;5063;50.878;4.742;2023-02-19T09:58:23;10.47;;;2.83;;
10045;SDS011;5063;50.878;4.742;2023-02-19T10:00:49;6.20;;;3.27;;
10045;SDS011;5063;50.878;4.742;2023-02-19T10:03:26;10.50;;;2.83;;
10045;SDS011;5063;50.878;4.742;2023-02-19T10:06:05;9.80;;;2.73;;
10045;SDS011;5063;50.878;4.742;2023-02-19T10:08:33;8.33;;;3.30;;
10045;SDS011;5063;50.878;4.742;2023-02-19T10:11:01;8.67;;;3.17;;
10045;SDS011;5063;50.878;4.742;2023-02-19T10:13:33;9.00;;;3.43;;
10045;SDS011;5063;50.878;4.742;2023-02-19T10:16:03;11.17;;;3.50;;
10045;SDS011;5063;50.878;4.742;2023-02-19T10:18:35;8.97;;;3.17;;
10045;SDS011;5063;50.878;4.742;2023-02-19T10:21:04;5.07;;;2.73;;
10045;SDS011;5063;50.878;4.742;2023-02-19T10:23:30;6.97;;;2.87;;
10045;SDS011;5063;50.878;4.742;2023-02-19T10:25:56;8.60;;;3.03;;
10045;SDS011;5063;50.878;4.742;2023-02-19T10:28:24;6.00;;;2.97;;
10045;SDS011;5063;50.878;4.742;2023-02-19T10:30:58;5.63;;;2.60;;
10045;SDS011;5063;50.878;4.742;2023-02-19T10:33:26;8.20;;;3.03;;
10045;SDS011;5063;50.878;4.742;2023-02-19T10:38:25;11.87;;;3.23;;
10045;SDS011;5063;50.878;4.742;2023-02-19T10:41:01;7.80;;;3.07;;
10045;SDS011;5063;50.878;4.742;2023-02-19T10:43:35;7.47;;;3.00;;
10045;SDS011;5063;50.878;4.742;2023-02-19T10:46:13;8.97;;;3.30;;
10045;SDS011;5063;50.878;4.742;2023-02-19T10:48:54;10.03;;;3.30;;
10045;SDS011;5063;50.878;4.742;2023-02-19T10:51:39;8.60;;;3.50;;
10045;SDS011;5063;50.878;4.742;2023-02-19T10:56:52;7.50;;;3.57;;
10045;SDS011;5063;50.878;4.742;2023-02-19T10:59:27;7.47;;;3.57;;
10045;SDS011;5063;50.878;4.742;2023-02-19T11:01:57;6.27;;;3.77;;
10045;SDS011;5063;50.878;4.742;2023-02-19T11:04:24;8.37;;;3.30;;
10045;SDS011;5063;50.878;4.742;2023-02-19T11:06:53;9.37;;;3.67;;
10045;SDS011;5063;50.878;4.742;2023-02-19T11:09:26;8.53;;;3.80;;
10045;SDS011;5063;50.878;4.742;2023-02-19T11:11:56;5.53;;;3.13;;
10045;SDS011;5063;50.878;4.742;2023-02-19T11:14:24;6.37;;;3.70;;
10045;SDS011;5063;50.878;4.742;2023-02-19T11:16:52;9.53;;;3.10;;
10045;SDS011;5063;50.878;4.742;2023-02-19T11:19:28;8.20;;;3.40;;
10045;SDS011;5063;50.878;4.742;2023-02-19T11:22:01;9.87;;;3.17;;
10045;SDS011;5063;50.878;4.742;2023-02-19T11:24:46;7.37;;;3.43;;
10045;SDS011;5063;50.878;4.742;2023-02-19T11:27:17;10.80;;;3.57;;
10045;SDS011;5063;50.878;4.742;2023-02-19T11:29:45;5.37;;;2.93;;
10045;SDS011;5063;50.878;4.742;2023-02-19T11:32:25;8.40;;;3.10;;
10045;SDS011;5063;50.878;4.742;2023-02-19T11:35:16;7.33;;;3.60;;
10045;SDS011;5063;50.878;4.742;2023-02-19T11:37:53;6.73;;;3.60;;
10045;SDS011;5063;50.878;4.742;2023-02-19T11:40:28;8.17;;;3.53;;
10045;SDS011;5063;50.878;4.742;2023-02-19T11:53:34;8.70;;;3.70;;
10045;SDS011;5063;50.878;4.742;2023-02-19T11:56:17;13.97;;;3.27;;
10045;SDS011;5063;50.878;4.742;2023-02-19T12:12:47;5.70;;;2.63;;
10045;SDS011;5063;50.878;4.742;2023-02-19T12:26:22;9.67;;;3.63;;
10045;SDS011;5063;50.878;4.742;2023-02-19T12:34:44;4.60;;;2.50;;
10045;SDS011;5063;50.878;4.742;2023-02-19T12:45:36;7.53;;;2.73;;
10045;SDS011;5063;50.878;4.742;2023-02-19T12:48:11;8.40;;;3.17;;
10045;SDS011;5063;50.878;4.742;2023-02-19T12:50:41;5.77;;;3.17;;
10045;SDS011;5063;50.878;4.742;2023-02-19T12:53:27;5.80;;;3.00;;
10045;SDS011;5063;50.878;4.742;2023-02-19T12:55:54;5.10;;;2.80;;
10045;SDS011;5063;50.878;4.742;2023-02-19T12:58:27;8.40;;;3.80;;
10045;SDS011;5063;50.878;4.742;2023-02-19T13:01:01;9.70;;;3.60;;
10045;SDS011;5063;50.878;4.742;2023-02-19T13:09:57;6.53;;;3.50;;
10045;SDS011;5063;50.878;4.742;2023-02-19T13:12:40;8.47;;;3.53;;
10045;SDS011;5063;50.878;4.742;2023-02-19T13:15:16;6.50;;;3.60;;
10045;SDS011;5063;50.878;4.742;2023-02-19T13:20:26;6.03;;;4.83;;
10045;SDS011;5063;50.878;4.742;2023-02-19T13:23:00;8.37;;;5.07;;
10045;SDS011;5063;50.878;4.742;2023-02-19T13:29:03;10.33;;;5.23;;
10045;SDS011;5063;50.878;4.742;2023-02-19T13:37:24;5.87;;;3.80;;
10045;SDS011;5063;50.878;4.742;2023-02-19T13:39:51;5.03;;;3.47;;
10045;SDS011;5063;50.878;4.742;2023-02-19T13:42:30;6.33;;;3.43;;
10045;SDS011;5063;50.878;4.742;2023-02-19T13:45:04;7.13;;;3.03;;
10045;SDS011;5063;50.878;4.742;2023-02-19T13:47:47;4.80;;;3.27;;
10045;SDS011;5063;50.878;4.742;2023-02-19T13:52:50;3.47;;;2.43;;
10045;SDS011;5063;50.878;4.742;2023-02-19T14:00:58;5.73;;;3.30;;
10045;SDS011;5063;50.878;4.742;2023-02-19T14:03:29;4.93;;;3.33;;
10045;SDS011;5063;50.878;4.742;2023-02-19T14:06:36;5.57;;;3.77;;
10045;SDS011;5063;50.878;4.742;2023-02-19T14:12:07;4.97;;;3.07;;
10045;SDS011;5063;50.878;4.742;2023-02-19T14:20:00;3.73;;;2.90;;
10045;SDS011;5063;50.878;4.742;2023-02-19T14:25:19;5.90;;;3.67;;
10045;SDS011;5063;50.878;4.742;2023-02-19T14:33:10;4.80;;;3.40;;
10045;SDS011;5063;50.878;4.742;2023-02-19T14:35:46;4.57;;;3.07;;
10045;SDS011;5063;50.878;4.742;2023-02-19T14:38:18;3.17;;;2.50;;
10045;SDS011;5063;50.878;4.742;2023-02-19T14:40:47;5.23;;;3.37;;
10045;SDS011;5063;50.878;4.742;2023-02-19T14:43:15;7.50;;;3.97;;
10045;SDS011;5063;50.878;4.742;2023-02-19T14:45:54;6.70;;;3.10;;
10045;SDS011;5063;50.878;4.742;2023-02-19T14:48:33;6.30;;;3.80;;
10045;SDS011;5063;50.878;4.742;2023-02-19T14:51:06;7.37;;;3.33;;
10045;SDS011;5063;50.878;4.742;2023-02-19T14:53:38;9.77;;;3.83;;
10045;SDS011;5063;50.878;4.742;2023-02-19T14:56:15;7.17;;;3.33;;
10045;SDS011;5063;50.878;4.742;2023-02-19T15:01:38;9.97;;;6.93;;
10045;SDS011;5063;50.878;4.742;2023-02-19T15:04:04;5.13;;;3.17;;
10045;SDS011;5063;50.878;4.742;2023-02-19T15:06:32;4.23;;;3.23;;
10045;SDS011;5063;50.878;4.742;2023-02-19T15:09:04;6.50;;;3.83;;
10045;SDS011;5063;50.878;4.742;2023-02-19T15:11:31;5.80;;;4.20;;
10045;SDS011;5063;50.878;4.742;2023-02-19T15:14:05;3.73;;;3.07;;
10045;SDS011;5063;50.878;4.742;2023-02-19T15:16:33;9.83;;;4.40;;
10045;SDS011;5063;50.878;4.742;2023-02-19T15:18:59;5.53;;;3.90;;
10045;SDS011;5063;50.878;4.742;2023-02-19T15:21:32;5.60;;;4.20;;
10045;SDS011;5063;50.878;4.742;2023-02-19T15:24:02;5.73;;;3.90;;
10045;SDS011;5063;50.878;4.742;2023-02-19T15:26:39;6.47;;;4.87;;
10045;SDS011;5063;50.878;4.742;2023-02-19T15:29:11;6.57;;;4.10;;
10045;SDS011;5063;50.878;4.742;2023-02-19T15:34:19;5.00;;;3.77;;
10045;SDS011;5063;50.878;4.742;2023-02-19T15:36:46;4.00;;;2.93;;
10045;SDS011;5063;50.878;4.742;2023-02-19T15:39:20;5.03;;;3.30;;
10045;SDS011;5063;50.878;4.742;2023-02-19T15:41:55;3.87;;;3.17;;
10045;SDS011;5063;50.878;4.742;2023-02-19T15:46:55;3.47;;;2.87;;
10045;SDS011;5063;50.878;4.742;2023-02-19T15:49:26;3.30;;;3.00;;
10045;SDS011;5063;50.878;4.742;2023-02-19T15:52:16;2.70;;;2.13;;
10045;SDS011;5063;50.878;4.742;2023-02-19T15:57:20;4.40;;;2.93;;
10045;SDS011;5063;50.878;4.742;2023-02-19T15:59:54;2.97;;;2.50;;
10045;SDS011;5063;50.878;4.742;2023-02-19T16:02:30;3.43;;;2.40;;
10045;SDS011;5063;50.878;4.742;2023-02-19T16:04:57;2.40;;;2.20;;
10045;SDS011;5063;50.878;4.742;2023-02-19T16:07:27;5.63;;;2.50;;
10045;SDS011;5063;50.878;4.742;2023-02-19T16:10:06;3.10;;;1.93;;
10045;SDS011;5063;50.878;4.742;2023-02-19T16:12:40;3.47;;;2.97;;
10045;SDS011;5063;50.878;4.742;2023-02-19T16:15:13;3.70;;;2.93;;
10045;SDS011;5063;50.878;4.742;2023-02-19T16:17:42;5.33;;;2.77;;
10045;SDS011;5063;50.878;4.742;2023-02-19T16:20:19;4.97;;;2.87;;
10045;SDS011;5063;50.878;4.742;2023-02-19T16:22:45;4.83;;;3.47;;
10045;SDS011;5063;50.878;4.742;2023-02-19T16:25:23;3.27;;;2.97;;
10045;SDS011;5063;50.878;4.742;2023-02-19T16:27:52;5.87;;;3.07;;
10045;SDS011;5063;50.878;4.742;2023-02-19T16:35:50;4.50;;;2.27;;
10045;SDS011;5063;50.878;4.742;2023-02-19T16:38:17;5.97;;;3.10;;
10045;SDS011;5063;50.878;4.742;2023-02-19T16:45:42;3.57;;;2.33;;
10045;SDS011;5063;50.878;4.742;2023-02-19T16:48:09;5.67;;;3.30;;
10045;SDS011;5063;50.878;4.742;2023-02-19T16:50:35;5.83;;;3.20;;
10045;SDS011;5063;50.878;4.742;2023-02-19T16:53:06;5.83;;;3.70;;
10045;SDS011;5063;50.878;4.742;2023-02-19T16:55:32;3.77;;;3.27;;
10045;SDS011;5063;50.878;4.742;2023-02-19T16:57:59;7.67;;;3.30;;
10045;SDS011;5063;50.878;4.742;2023-02-19T17:00:26;12.83;;;6.77;;
10045;SDS011;5063;50.878;4.742;2023-02-19T17:02:54;6.43;;;4.97;;
10045;SDS011;5063;50.878;4.742;2023-02-19T17:05:24;4.40;;;2.87;;
10045;SDS011;5063;50.878;4.742;2023-02-19T17:07:51;5.10;;;4.40;;
10045;SDS011;5063;50.878;4.742;2023-02-19T17:10:21;3.37;;;3.07;;
10045;SDS011;5063;50.878;4.742;2023-02-19T17:12:49;4.70;;;3.90;;
10045;SDS011;5063;50.878;4.742;2023-02-19T17:15:15;3.60;;;2.60;;
10045;SDS011;5063;50.878;4.742;2023-02-19T17:17:42;3.80;;;3.20;;
10045;SDS011;5063;50.878;4.742;2023-02-19T17:22:45;4.53;;;4.13;;
10045;SDS011;5063;50.878;4.742;2023-02-19T17:25:11;4.13;;;3.70;;
10045;SDS011;5063;50.878;4.742;2023-02-19T17:27:36;5.73;;;3.57;;
10045;SDS011;5063;50.878;4.742;2023-02-19T17:30:02;6.67;;;3.63;;
10045;SDS011;5063;50.878;4.742;2023-02-19T17:32:34;5.70;;;3.63;;
10045;SDS011;5063;50.878;4.742;2023-02-19T17:34:59;9.23;;;4.23;;
10045;SDS011;5063;50.878;4.742;2023-02-19T17:37:25;4.40;;;3.00;;
10045;SDS011;5063;50.878;4.742;2023-02-19T17:39:51;4.37;;;3.73;;
10045;SDS011;5063;50.878;4.742;2023-02-19T17:42:16;6.90;;;4.77;;
10045;SDS011;5063;50.878;4.742;2023-02-19T17:44:42;7.47;;;4.47;;
10045;SDS011;5063;50.878;4.742;2023-02-19T17:47:10;6.20;;;4.27;;
10045;SDS011;5063;50.878;4.742;2023-02-19T17:49:35;8.13;;;4.87;;
10045;SDS011;5063;50.878;4.742;2023-02-19T17:52:01;7.47;;;5.10;;
10045;SDS011;5063;50.878;4.742;2023-02-19T17:54:27;7.33;;;4.03;;